AAL8205 CYWG-CYQX
Flight info
| Callsign | AAL8205 |
|---|---|
| Flight time | 4h 9m |
| Altitude | 33000 |
| Route | VOGIG DCT OMRIV DCT YMO DCT ROBBE/N0454F350 DCT YNA DCT KELGU |
| Aircraft | A21N/M-SDE3FGHIRWY/LB1 |
Departure
| Time | 2026-04-29 17:08 |
|---|---|
| Airport | Winnipeg / James Armstrong Richardson International Airport (CYWG) |
Arrival
| Time | 2026-04-29 21:17 |
|---|---|
| Airport | Gander International Airport (CYQX) |
| Time | Latitude | Longitude | Altitude | Speed | Heading |
|---|---|---|---|---|---|
| 2026-04-29 16:46 | 49.90637 | -97.22782 | 768 ft | 0 kts | 152° |
| 2026-04-29 16:57 | 49.90649 | -97.22791 | 768 ft | 2 kts | 152° |
| 2026-04-29 16:58 | 49.90662 | -97.22803 | 769 ft | 2 kts | 152° |
| 2026-04-29 16:58 | 49.90675 | -97.22814 | 769 ft | 2 kts | 152° |
| 2026-04-29 16:58 | 49.90690 | -97.22820 | 769 ft | 2 kts | 180° |
| 2026-04-29 16:58 | 49.90704 | -97.22818 | 769 ft | 2 kts | 199° |
| 2026-04-29 16:59 | 49.90718 | -97.22807 | 769 ft | 2 kts | 220° |
| 2026-04-29 16:59 | 49.90727 | -97.22790 | 769 ft | 2 kts | 242° |
| 2026-04-29 16:59 | 49.90731 | -97.22774 | 769 ft | 0 kts | 257° |
| 2026-04-29 16:59 | 49.90733 | -97.22763 | 769 ft | 0 kts | 259° |
| 2026-04-29 17:01 | 49.90724 | -97.22806 | 769 ft | 13 kts | 246° |
| 2026-04-29 17:01 | 49.90601 | -97.22913 | 769 ft | 26 kts | 170° |
| 2026-04-29 17:01 | 49.90424 | -97.22901 | 768 ft | 25 kts | 198° |
| 2026-04-29 17:02 | 49.90264 | -97.22985 | 768 ft | 23 kts | 199° |
| 2026-04-29 17:02 | 49.90161 | -97.23148 | 768 ft | 20 kts | 223° |
| 2026-04-29 17:02 | 49.90048 | -97.23093 | 767 ft | 19 kts | 138° |
| 2026-04-29 17:02 | 49.89949 | -97.22956 | 766 ft | 19 kts | 138° |
| 2026-04-29 17:03 | 49.89854 | -97.22808 | 765 ft | 19 kts | 131° |
| 2026-04-29 17:03 | 49.89791 | -97.22690 | 765 ft | 0 kts | 129° |
| 2026-04-29 17:03 | 49.89780 | -97.22668 | 765 ft | 9 kts | 129° |
| 2026-04-29 17:03 | 49.89704 | -97.22549 | 764 ft | 16 kts | 167° |
| 2026-04-29 17:04 | 49.89617 | -97.22639 | 764 ft | 13 kts | 238° |
| 2026-04-29 17:04 | 49.89541 | -97.22769 | 765 ft | 24 kts | 229° |
| 2026-04-29 17:04 | 49.89484 | -97.23005 | 765 ft | 23 kts | 277° |
| 2026-04-29 17:04 | 49.89505 | -97.23247 | 766 ft | 21 kts | 277° |
| 2026-04-29 17:05 | 49.89524 | -97.23470 | 767 ft | 20 kts | 277° |
| 2026-04-29 17:05 | 49.89544 | -97.23739 | 769 ft | 28 kts | 277° |
| 2026-04-29 17:05 | 49.89562 | -97.23984 | 771 ft | 0 kts | 277° |
| 2026-04-29 17:06 | 49.89562 | -97.23985 | 771 ft | 0 kts | 277° |
| 2026-04-29 17:06 | 49.89566 | -97.24042 | 771 ft | 18 kts | 277° |
| 2026-04-29 17:06 | 49.89638 | -97.24158 | 772 ft | 16 kts | 6° |
| 2026-04-29 17:07 | 49.89867 | -97.24105 | 772 ft | 64 kts | 9° |
| 2026-04-29 17:07 | 49.90514 | -97.23951 | 775 ft | 123 kts | 8° |
| 2026-04-29 17:07 | 49.91548 | -97.23714 | 783 ft | 172 kts | 8° |
| 2026-04-29 17:07 | 49.92784 | -97.23423 | 1169 ft | 185 kts | 8° |
| 2026-04-29 17:08 | 49.93985 | -97.22869 | 1959 ft | 183 kts | 33° |
| 2026-04-29 17:08 | 49.94681 | -97.21283 | 2688 ft | 187 kts | 67° |
| 2026-04-29 17:08 | 49.95058 | -97.19297 | 3135 ft | 201 kts | 71° |
| 2026-04-29 17:08 | 49.95469 | -97.17126 | 3538 ft | 218 kts | 69° |
| 2026-04-29 17:09 | 49.95965 | -97.14774 | 3882 ft | 240 kts | 68° |
| 2026-04-29 17:09 | 49.96540 | -97.12262 | 4342 ft | 256 kts | 67° |
| 2026-04-29 17:09 | 49.97161 | -97.09657 | 5018 ft | 262 kts | 66° |
| 2026-04-29 17:09 | 49.97808 | -97.07003 | 5800 ft | 264 kts | 66° |
| 2026-04-29 17:10 | 49.98464 | -97.04346 | 6553 ft | 266 kts | 66° |
| 2026-04-29 17:10 | 49.99128 | -97.01678 | 7275 ft | 269 kts | 65° |
| 2026-04-29 17:10 | 49.99799 | -96.98994 | 7973 ft | 272 kts | 65° |
| 2026-04-29 17:10 | 50.00486 | -96.96248 | 8668 ft | 274 kts | 65° |
| 2026-04-29 17:11 | 50.01174 | -96.93501 | 9333 ft | 277 kts | 64° |
| 2026-04-29 17:11 | 50.01878 | -96.90694 | 9983 ft | 280 kts | 64° |
| 2026-04-29 17:11 | 50.02587 | -96.87868 | 10484 ft | 288 kts | 64° |
| 2026-04-29 17:11 | 50.03329 | -96.84930 | 10768 ft | 303 kts | 64° |
| 2026-04-29 17:12 | 50.04113 | -96.81813 | 11053 ft | 318 kts | 64° |
| 2026-04-29 17:12 | 50.04943 | -96.78500 | 11336 ft | 333 kts | 64° |
| 2026-04-29 17:12 | 50.05784 | -96.75133 | 11604 ft | 346 kts | 64° |
| 2026-04-29 17:12 | 50.06381 | -96.72739 | 11772 ft | 356 kts | 65° |
| 2026-04-29 17:13 | 50.07587 | -96.67886 | 12124 ft | 373 kts | 65° |
| 2026-04-29 17:13 | 50.08528 | -96.64084 | 12579 ft | 379 kts | 65° |
| 2026-04-29 17:13 | 50.09472 | -96.60259 | 13158 ft | 382 kts | 65° |
| 2026-04-29 17:13 | 50.10426 | -96.56392 | 13729 ft | 384 kts | 65° |
| 2026-04-29 17:14 | 50.11379 | -96.52528 | 14282 ft | 387 kts | 64° |
| 2026-04-29 17:14 | 50.12351 | -96.48583 | 14830 ft | 390 kts | 64° |
| 2026-04-29 17:14 | 50.13309 | -96.44688 | 15330 ft | 393 kts | 65° |
| 2026-04-29 17:14 | 50.14296 | -96.40676 | 15825 ft | 396 kts | 65° |
| 2026-04-29 17:15 | 50.15274 | -96.36688 | 16307 ft | 399 kts | 65° |
| 2026-04-29 17:15 | 50.16264 | -96.32642 | 16794 ft | 402 kts | 66° |
| 2026-04-29 17:15 | 50.17258 | -96.28572 | 17257 ft | 405 kts | 66° |
| 2026-04-29 17:15 | 50.18264 | -96.24448 | 17716 ft | 408 kts | 66° |
| 2026-04-29 17:16 | 50.19277 | -96.20285 | 18167 ft | 411 kts | 66° |
| 2026-04-29 17:16 | 50.20282 | -96.16147 | 18595 ft | 414 kts | 66° |
| 2026-04-29 17:16 | 50.21303 | -96.11932 | 19021 ft | 417 kts | 66° |
| 2026-04-29 17:16 | 50.22320 | -96.07729 | 19427 ft | 419 kts | 66° |
| 2026-04-29 17:17 | 50.23289 | -96.03394 | 19816 ft | 424 kts | 69° |
| 2026-04-29 17:17 | 50.24077 | -95.98945 | 20198 ft | 428 kts | 73° |
| 2026-04-29 17:17 | 50.24716 | -95.94466 | 20568 ft | 431 kts | 74° |
| 2026-04-29 17:17 | 50.25345 | -95.89828 | 20953 ft | 434 kts | 75° |
| 2026-04-29 17:18 | 50.25961 | -95.85239 | 21319 ft | 436 kts | 75° |
| 2026-04-29 17:18 | 50.26577 | -95.80645 | 21689 ft | 438 kts | 75° |
| 2026-04-29 17:18 | 50.27206 | -95.75949 | 22052 ft | 440 kts | 75° |
| 2026-04-29 17:18 | 50.27829 | -95.71302 | 22408 ft | 442 kts | 75° |
| 2026-04-29 17:19 | 50.28463 | -95.66571 | 22748 ft | 444 kts | 75° |
| 2026-04-29 17:19 | 50.29093 | -95.61850 | 23080 ft | 446 kts | 75° |
| 2026-04-29 17:19 | 50.29718 | -95.57159 | 23394 ft | 448 kts | 75° |
| 2026-04-29 17:19 | 50.30359 | -95.52334 | 23706 ft | 450 kts | 75° |
| 2026-04-29 17:20 | 50.30990 | -95.47566 | 24003 ft | 452 kts | 75° |
| 2026-04-29 17:20 | 50.31622 | -95.42783 | 24349 ft | 453 kts | 75° |
| 2026-04-29 17:20 | 50.32253 | -95.37983 | 24778 ft | 451 kts | 75° |
| 2026-04-29 17:20 | 50.32886 | -95.33152 | 25201 ft | 450 kts | 76° |
| 2026-04-29 17:21 | 50.33511 | -95.28365 | 25572 ft | 449 kts | 76° |
| 2026-04-29 17:21 | 50.34124 | -95.23652 | 25930 ft | 449 kts | 76° |
| 2026-04-29 17:21 | 50.34747 | -95.18856 | 26306 ft | 448 kts | 76° |
| 2026-04-29 17:21 | 50.35364 | -95.14095 | 26667 ft | 447 kts | 76° |
| 2026-04-29 17:22 | 50.35972 | -95.09387 | 27023 ft | 446 kts | 76° |
| 2026-04-29 17:22 | 50.36581 | -95.04641 | 27366 ft | 445 kts | 76° |
| 2026-04-29 17:22 | 50.37185 | -94.99921 | 27704 ft | 445 kts | 76° |
| 2026-04-29 17:22 | 50.37793 | -94.95154 | 28034 ft | 444 kts | 75° |
| 2026-04-29 17:23 | 50.38386 | -94.90491 | 28339 ft | 443 kts | 75° |
| 2026-04-29 17:23 | 50.38982 | -94.85785 | 28634 ft | 443 kts | 75° |
| 2026-04-29 17:23 | 50.39586 | -94.81014 | 28927 ft | 442 kts | 75° |
| 2026-04-29 17:23 | 50.40173 | -94.76361 | 29204 ft | 442 kts | 75° |
| 2026-04-29 17:24 | 50.40771 | -94.71599 | 29465 ft | 442 kts | 75° |
| 2026-04-29 17:24 | 50.41360 | -94.66888 | 29708 ft | 442 kts | 76° |
| 2026-04-29 17:24 | 50.41943 | -94.62221 | 29946 ft | 442 kts | 76° |
| 2026-04-29 17:24 | 50.42525 | -94.57534 | 30179 ft | 442 kts | 76° |
| 2026-04-29 17:25 | 50.43110 | -94.52808 | 30409 ft | 441 kts | 76° |
| 2026-04-29 17:25 | 50.43693 | -94.48076 | 30630 ft | 441 kts | 76° |
| 2026-04-29 17:25 | 50.44270 | -94.43381 | 30849 ft | 441 kts | 76° |
| 2026-04-29 17:25 | 50.44841 | -94.38711 | 31006 ft | 440 kts | 76° |
| 2026-04-29 17:26 | 50.45423 | -94.33945 | 31159 ft | 440 kts | 77° |
| 2026-04-29 17:26 | 50.45995 | -94.29250 | 31272 ft | 441 kts | 77° |
| 2026-04-29 17:26 | 50.46565 | -94.24542 | 31377 ft | 443 kts | 77° |
| 2026-04-29 17:26 | 50.47133 | -94.19837 | 31476 ft | 444 kts | 77° |
| 2026-04-29 17:27 | 50.47707 | -94.15066 | 31595 ft | 445 kts | 77° |
| 2026-04-29 17:27 | 50.48279 | -94.10293 | 31690 ft | 446 kts | 77° |
| 2026-04-29 17:27 | 50.49412 | -94.00793 | 31863 ft | 449 kts | 77° |
| 2026-04-29 17:28 | 50.50550 | -93.91170 | 32061 ft | 451 kts | 77° |
| 2026-04-29 17:28 | 50.51124 | -93.86292 | 32165 ft | 451 kts | 77° |
| 2026-04-29 17:28 | 50.51684 | -93.81509 | 32271 ft | 452 kts | 77° |
| 2026-04-29 17:29 | 50.52255 | -93.76627 | 32375 ft | 452 kts | 78° |
| 2026-04-29 17:29 | 50.52815 | -93.71802 | 32480 ft | 453 kts | 78° |
| 2026-04-29 17:29 | 50.53934 | -93.62123 | 32682 ft | 455 kts | 78° |
| 2026-04-29 17:30 | 50.55058 | -93.52334 | 32869 ft | 456 kts | 78° |
| 2026-04-29 17:30 | 50.56174 | -93.42530 | 33047 ft | 458 kts | 78° |
| 2026-04-29 17:31 | 50.57283 | -93.32713 | 33082 ft | 459 kts | 79° |
| 2026-04-29 17:31 | 50.58383 | -93.22888 | 33083 ft | 459 kts | 79° |
| 2026-04-29 17:32 | 50.59483 | -93.12990 | 33078 ft | 459 kts | 79° |
| 2026-04-29 17:32 | 50.60565 | -93.03183 | 33073 ft | 459 kts | 79° |
| 2026-04-29 17:33 | 50.61649 | -92.93279 | 33076 ft | 459 kts | 79° |
| 2026-04-29 17:33 | 50.62718 | -92.83418 | 33071 ft | 459 kts | 79° |
| 2026-04-29 17:34 | 50.63779 | -92.73556 | 33068 ft | 459 kts | 79° |
| 2026-04-29 17:34 | 50.64834 | -92.63663 | 33067 ft | 459 kts | 79° |
| 2026-04-29 17:35 | 50.66394 | -92.48885 | 33060 ft | 459 kts | 79° |
| 2026-04-29 17:36 | 50.67435 | -92.38930 | 33064 ft | 459 kts | 79° |
| 2026-04-29 17:36 | 50.68456 | -92.29069 | 33057 ft | 459 kts | 81° |
| 2026-04-29 17:37 | 50.69469 | -92.19201 | 33054 ft | 459 kts | 81° |
| 2026-04-29 17:37 | 50.70476 | -92.09318 | 33056 ft | 459 kts | 81° |
| 2026-04-29 17:38 | 50.71480 | -91.99372 | 33055 ft | 460 kts | 81° |
| 2026-04-29 17:38 | 50.72470 | -91.89471 | 33054 ft | 460 kts | 81° |
| 2026-04-29 17:39 | 50.73451 | -91.79556 | 33056 ft | 459 kts | 81° |
| 2026-04-29 17:39 | 50.74429 | -91.69606 | 33057 ft | 459 kts | 81° |
| 2026-04-29 17:40 | 50.75392 | -91.59712 | 33050 ft | 459 kts | 81° |
| 2026-04-29 17:40 | 50.76346 | -91.49828 | 33061 ft | 459 kts | 81° |
| 2026-04-29 17:41 | 50.77300 | -91.39857 | 33062 ft | 459 kts | 81° |
| 2026-04-29 17:41 | 50.78238 | -91.29955 | 33052 ft | 459 kts | 82° |
| 2026-04-29 17:42 | 50.79169 | -91.20020 | 33055 ft | 459 kts | 82° |
| 2026-04-29 17:42 | 50.80090 | -91.10093 | 33053 ft | 459 kts | 82° |
| 2026-04-29 17:43 | 50.81006 | -91.00136 | 33045 ft | 458 kts | 82° |
| 2026-04-29 17:43 | 50.81910 | -90.90229 | 33051 ft | 458 kts | 82° |
| 2026-04-29 17:44 | 50.82810 | -90.80260 | 33051 ft | 458 kts | 82° |
| 2026-04-29 17:44 | 50.83696 | -90.70362 | 33043 ft | 459 kts | 82° |
| 2026-04-29 17:45 | 50.84580 | -90.60379 | 33054 ft | 458 kts | 82° |
| 2026-04-29 17:45 | 50.85446 | -90.50482 | 33043 ft | 458 kts | 82° |
| 2026-04-29 17:46 | 50.86312 | -90.40489 | 33045 ft | 458 kts | 82° |
| 2026-04-29 17:46 | 50.87164 | -90.30569 | 33040 ft | 458 kts | 83° |
| 2026-04-29 17:47 | 50.88009 | -90.20615 | 33035 ft | 457 kts | 83° |
| 2026-04-29 17:47 | 50.88842 | -90.10708 | 33037 ft | 458 kts | 83° |
| 2026-04-29 17:48 | 50.89672 | -90.00744 | 33035 ft | 458 kts | 83° |
| 2026-04-29 17:48 | 50.90494 | -89.90762 | 33034 ft | 459 kts | 83° |
| 2026-04-29 17:49 | 50.91307 | -89.80776 | 33027 ft | 458 kts | 83° |
| 2026-04-29 17:49 | 50.92109 | -89.70824 | 33036 ft | 458 kts | 83° |
| 2026-04-29 17:50 | 50.92905 | -89.60831 | 33032 ft | 458 kts | 83° |
| 2026-04-29 17:50 | 50.93692 | -89.50848 | 33038 ft | 458 kts | 83° |
| 2026-04-29 17:51 | 50.94468 | -89.40884 | 33037 ft | 458 kts | 83° |
| 2026-04-29 17:51 | 50.95235 | -89.30925 | 33036 ft | 459 kts | 84° |
| 2026-04-29 17:52 | 50.95998 | -89.20913 | 33035 ft | 459 kts | 84° |
| 2026-04-29 17:52 | 50.96752 | -89.10886 | 33029 ft | 459 kts | 84° |
| 2026-04-29 17:53 | 50.97496 | -89.00884 | 33041 ft | 459 kts | 84° |
| 2026-04-29 17:53 | 50.98230 | -88.90896 | 33041 ft | 459 kts | 84° |
| 2026-04-29 17:54 | 50.98960 | -88.80851 | 33031 ft | 459 kts | 84° |
| 2026-04-29 17:54 | 50.99681 | -88.70808 | 33031 ft | 459 kts | 84° |
| 2026-04-29 17:55 | 51.00393 | -88.60789 | 33032 ft | 460 kts | 84° |
| 2026-04-29 17:55 | 51.01098 | -88.50719 | 33033 ft | 460 kts | 84° |
| 2026-04-29 17:56 | 51.01794 | -88.40659 | 33030 ft | 460 kts | 84° |
| 2026-04-29 17:56 | 51.02477 | -88.30660 | 33024 ft | 460 kts | 85° |
| 2026-04-29 17:57 | 51.03155 | -88.20591 | 33022 ft | 460 kts | 85° |
| 2026-04-29 17:57 | 51.03822 | -88.10551 | 33023 ft | 459 kts | 85° |
| 2026-04-29 17:58 | 51.04480 | -88.00511 | 33023 ft | 459 kts | 85° |
| 2026-04-29 17:58 | 51.05135 | -87.90407 | 33029 ft | 460 kts | 85° |
| 2026-04-29 17:59 | 51.05776 | -87.80381 | 33032 ft | 460 kts | 85° |
| 2026-04-29 17:59 | 51.06413 | -87.70282 | 33030 ft | 460 kts | 85° |
| 2026-04-29 18:00 | 51.07038 | -87.60210 | 33034 ft | 460 kts | 85° |
| 2026-04-29 18:00 | 51.07655 | -87.50140 | 33035 ft | 459 kts | 85° |
| 2026-04-29 18:01 | 51.08261 | -87.40099 | 33038 ft | 458 kts | 85° |
| 2026-04-29 18:01 | 51.08859 | -87.30051 | 33036 ft | 458 kts | 86° |
| 2026-04-29 18:02 | 51.09448 | -87.20004 | 33037 ft | 459 kts | 86° |
| 2026-04-29 18:02 | 51.10029 | -87.09952 | 33037 ft | 459 kts | 86° |
| 2026-04-29 18:03 | 51.10605 | -86.99818 | 33036 ft | 459 kts | 86° |
| 2026-04-29 18:03 | 51.11167 | -86.89786 | 33034 ft | 459 kts | 86° |
| 2026-04-29 18:04 | 51.11723 | -86.79724 | 33031 ft | 459 kts | 86° |
| 2026-04-29 18:04 | 51.12272 | -86.69598 | 33039 ft | 459 kts | 86° |
| 2026-04-29 18:05 | 51.12809 | -86.59530 | 33035 ft | 459 kts | 86° |
| 2026-04-29 18:05 | 51.13339 | -86.49440 | 33038 ft | 459 kts | 86° |
| 2026-04-29 18:06 | 51.13859 | -86.39375 | 33041 ft | 459 kts | 86° |
| 2026-04-29 18:06 | 51.14373 | -86.29240 | 33044 ft | 459 kts | 87° |
| 2026-04-29 18:07 | 51.14875 | -86.19179 | 33035 ft | 458 kts | 86° |
| 2026-04-29 18:07 | 51.15367 | -86.09150 | 33028 ft | 458 kts | 87° |
| 2026-04-29 18:08 | 51.15852 | -85.99103 | 33021 ft | 459 kts | 87° |
| 2026-04-29 18:08 | 51.16331 | -85.88985 | 33023 ft | 459 kts | 87° |
| 2026-04-29 18:09 | 51.16798 | -85.78912 | 33025 ft | 459 kts | 87° |
| 2026-04-29 18:09 | 51.17260 | -85.68766 | 33024 ft | 458 kts | 87° |
| 2026-04-29 18:10 | 51.17707 | -85.58748 | 33023 ft | 457 kts | 87° |
| 2026-04-29 18:10 | 51.18152 | -85.48612 | 33029 ft | 458 kts | 87° |
| 2026-04-29 18:11 | 51.18583 | -85.38609 | 33024 ft | 458 kts | 87° |
| 2026-04-29 18:11 | 51.19009 | -85.28488 | 33029 ft | 458 kts | 88° |
| 2026-04-29 18:12 | 51.19426 | -85.18373 | 33027 ft | 458 kts | 88° |
| 2026-04-29 18:12 | 51.19832 | -85.08297 | 33031 ft | 458 kts | 88° |
| 2026-04-29 18:13 | 51.20230 | -84.98229 | 33029 ft | 456 kts | 88° |
| 2026-04-29 18:13 | 51.20618 | -84.88179 | 33021 ft | 456 kts | 88° |
| 2026-04-29 18:14 | 51.20998 | -84.78113 | 33028 ft | 457 kts | 88° |
| 2026-04-29 18:14 | 51.21369 | -84.68052 | 33032 ft | 458 kts | 88° |
| 2026-04-29 18:15 | 51.21733 | -84.57967 | 33028 ft | 458 kts | 88° |
| 2026-04-29 18:15 | 51.22088 | -84.47852 | 33024 ft | 458 kts | 88° |
| 2026-04-29 18:16 | 51.22435 | -84.37759 | 33031 ft | 458 kts | 88° |
| 2026-04-29 18:16 | 51.22775 | -84.27645 | 33015 ft | 457 kts | 89° |
| 2026-04-29 18:17 | 51.23105 | -84.17540 | 33025 ft | 457 kts | 89° |
| 2026-04-29 18:17 | 51.23426 | -84.07465 | 33020 ft | 456 kts | 89° |
| 2026-04-29 18:18 | 51.23737 | -83.97389 | 33022 ft | 457 kts | 89° |
| 2026-04-29 18:18 | 51.24038 | -83.87304 | 33018 ft | 457 kts | 89° |
| 2026-04-29 18:19 | 51.24330 | -83.77252 | 33011 ft | 457 kts | 89° |
| 2026-04-29 18:19 | 51.24618 | -83.67107 | 33009 ft | 458 kts | 89° |
| 2026-04-29 18:20 | 51.24893 | -83.57062 | 33009 ft | 458 kts | 89° |
| 2026-04-29 18:20 | 51.25164 | -83.46895 | 33014 ft | 459 kts | 89° |
| 2026-04-29 18:21 | 51.25423 | -83.36785 | 33017 ft | 459 kts | 89° |
| 2026-04-29 18:21 | 51.25674 | -83.26669 | 33012 ft | 458 kts | 90° |
| 2026-04-29 18:22 | 51.25915 | -83.16528 | 33014 ft | 458 kts | 90° |
| 2026-04-29 18:22 | 51.26150 | -83.06399 | 33012 ft | 458 kts | 90° |
| 2026-04-29 18:23 | 51.26374 | -82.96268 | 33021 ft | 458 kts | 90° |
| 2026-04-29 18:23 | 51.26591 | -82.86155 | 33008 ft | 458 kts | 90° |
| 2026-04-29 18:24 | 51.26797 | -82.76054 | 33007 ft | 459 kts | 90° |
| 2026-04-29 18:24 | 51.26996 | -82.65932 | 33002 ft | 458 kts | 90° |
| 2026-04-29 18:25 | 51.27186 | -82.55801 | 32999 ft | 459 kts | 90° |
| 2026-04-29 18:25 | 51.27367 | -82.45641 | 32988 ft | 459 kts | 90° |
| 2026-04-29 18:26 | 51.27541 | -82.35463 | 32999 ft | 459 kts | 90° |
| 2026-04-29 18:26 | 51.27705 | -82.25335 | 32989 ft | 458 kts | 91° |
| 2026-04-29 18:27 | 51.27860 | -82.15179 | 32988 ft | 458 kts | 91° |
| 2026-04-29 18:27 | 51.28005 | -82.05101 | 32990 ft | 459 kts | 91° |
| 2026-04-29 18:28 | 51.28144 | -81.94886 | 32994 ft | 459 kts | 91° |
| 2026-04-29 18:28 | 51.28272 | -81.84778 | 32989 ft | 459 kts | 91° |
| 2026-04-29 18:29 | 51.28393 | -81.74599 | 32986 ft | 460 kts | 91° |
| 2026-04-29 18:29 | 51.28505 | -81.64470 | 32983 ft | 459 kts | 91° |
| 2026-04-29 18:30 | 51.28606 | -81.54253 | 32965 ft | 460 kts | 91° |
| 2026-04-29 18:30 | 51.28698 | -81.44153 | 32975 ft | 460 kts | 91° |
| 2026-04-29 18:31 | 51.28782 | -81.33978 | 32968 ft | 460 kts | 92° |
| 2026-04-29 18:31 | 51.28858 | -81.23776 | 32969 ft | 460 kts | 92° |
| 2026-04-29 18:32 | 51.28927 | -81.13600 | 32976 ft | 461 kts | 92° |
| 2026-04-29 18:32 | 51.29012 | -80.98293 | 32965 ft | 461 kts | 92° |
| 2026-04-29 18:33 | 51.29058 | -80.88128 | 32974 ft | 461 kts | 92° |
| 2026-04-29 18:33 | 51.29096 | -80.77968 | 32974 ft | 461 kts | 92° |
| 2026-04-29 18:34 | 51.29120 | -80.69455 | 32978 ft | 461 kts | 92° |
| 2026-04-29 18:34 | 51.29229 | -80.57545 | 32981 ft | 462 kts | 90° |
| 2026-04-29 18:35 | 51.29535 | -80.47304 | 32978 ft | 463 kts | 89° |
| 2026-04-29 18:35 | 51.29842 | -80.37118 | 32980 ft | 463 kts | 89° |
| 2026-04-29 18:36 | 51.30141 | -80.26860 | 32986 ft | 463 kts | 90° |
| 2026-04-29 18:36 | 51.30427 | -80.16653 | 32966 ft | 462 kts | 90° |
| 2026-04-29 18:37 | 51.30703 | -80.06443 | 32964 ft | 463 kts | 90° |
| 2026-04-29 18:37 | 51.30972 | -79.96167 | 32958 ft | 464 kts | 90° |
| 2026-04-29 18:38 | 51.31232 | -79.85903 | 32971 ft | 464 kts | 90° |
| 2026-04-29 18:38 | 51.31482 | -79.75685 | 32960 ft | 464 kts | 90° |
| 2026-04-29 18:39 | 51.31723 | -79.65438 | 32948 ft | 465 kts | 90° |
| 2026-04-29 18:39 | 51.31956 | -79.55078 | 32958 ft | 466 kts | 90° |
| 2026-04-29 18:40 | 51.32182 | -79.44782 | 32956 ft | 466 kts | 90° |
| 2026-04-29 18:40 | 51.32396 | -79.34523 | 32948 ft | 466 kts | 91° |
| 2026-04-29 18:41 | 51.32802 | -79.13863 | 32951 ft | 467 kts | 91° |
| 2026-04-29 18:42 | 51.32992 | -79.03494 | 32950 ft | 468 kts | 91° |
| 2026-04-29 18:42 | 51.33169 | -78.93181 | 32954 ft | 468 kts | 91° |
| 2026-04-29 18:43 | 51.33340 | -78.82796 | 32952 ft | 469 kts | 91° |
| 2026-04-29 18:43 | 51.33503 | -78.72417 | 32952 ft | 469 kts | 91° |
| 2026-04-29 18:44 | 51.33656 | -78.62028 | 32952 ft | 470 kts | 91° |
| 2026-04-29 18:44 | 51.33799 | -78.51671 | 32951 ft | 470 kts | 91° |
| 2026-04-29 18:45 | 51.33934 | -78.41227 | 32948 ft | 470 kts | 91° |
| 2026-04-29 18:45 | 51.34061 | -78.30883 | 32944 ft | 471 kts | 92° |
| 2026-04-29 18:46 | 51.34178 | -78.20416 | 32936 ft | 472 kts | 92° |
| 2026-04-29 18:46 | 51.34286 | -78.09925 | 32929 ft | 472 kts | 92° |
| 2026-04-29 18:47 | 51.34383 | -77.99496 | 32924 ft | 472 kts | 92° |
| 2026-04-29 18:47 | 51.34472 | -77.89047 | 32918 ft | 473 kts | 92° |
| 2026-04-29 18:48 | 51.34552 | -77.78522 | 32910 ft | 473 kts | 92° |
| 2026-04-29 18:48 | 51.34623 | -77.68090 | 32902 ft | 474 kts | 92° |
| 2026-04-29 18:49 | 51.34684 | -77.57571 | 32902 ft | 475 kts | 92° |
| 2026-04-29 18:49 | 51.34736 | -77.47052 | 32902 ft | 476 kts | 92° |
| 2026-04-29 18:50 | 51.34777 | -77.36552 | 32890 ft | 475 kts | 92° |
| 2026-04-29 18:50 | 51.34812 | -77.25972 | 32888 ft | 476 kts | 93° |
| 2026-04-29 18:51 | 51.34836 | -77.15463 | 32893 ft | 477 kts | 93° |
| 2026-04-29 18:51 | 51.34850 | -77.04921 | 32891 ft | 476 kts | 93° |
| 2026-04-29 18:52 | 51.34855 | -76.94361 | 32890 ft | 477 kts | 93° |
| 2026-04-29 18:52 | 51.34850 | -76.83763 | 32900 ft | 478 kts | 93° |
| 2026-04-29 18:53 | 51.34835 | -76.73219 | 32888 ft | 478 kts | 93° |
| 2026-04-29 18:53 | 51.34813 | -76.62600 | 32884 ft | 479 kts | 94° |
| 2026-04-29 18:54 | 51.34779 | -76.52003 | 32881 ft | 480 kts | 94° |
| 2026-04-29 18:54 | 51.34735 | -76.41350 | 32884 ft | 480 kts | 94° |
| 2026-04-29 18:55 | 51.34683 | -76.30701 | 32881 ft | 480 kts | 94° |
| 2026-04-29 18:55 | 51.34620 | -76.20068 | 32873 ft | 480 kts | 94° |
| 2026-04-29 18:56 | 51.34549 | -76.09493 | 32867 ft | 481 kts | 94° |
| 2026-04-29 18:56 | 51.34467 | -75.98797 | 32857 ft | 481 kts | 94° |
| 2026-04-29 18:57 | 51.34376 | -75.88148 | 32872 ft | 482 kts | 94° |
| 2026-04-29 18:57 | 51.34276 | -75.77518 | 32859 ft | 482 kts | 94° |
| 2026-04-29 18:58 | 51.34164 | -75.66791 | 32862 ft | 482 kts | 94° |
| 2026-04-29 18:58 | 51.34042 | -75.56118 | 32866 ft | 483 kts | 94° |
| 2026-04-29 18:59 | 51.33913 | -75.45459 | 32870 ft | 484 kts | 94° |
| 2026-04-29 18:59 | 51.33772 | -75.34700 | 32865 ft | 484 kts | 95° |
| 2026-04-29 19:00 | 51.33622 | -75.24036 | 32856 ft | 484 kts | 95° |
| 2026-04-29 19:00 | 51.33461 | -75.13281 | 32837 ft | 484 kts | 95° |
| 2026-04-29 19:01 | 51.33293 | -75.02625 | 32841 ft | 484 kts | 95° |
| 2026-04-29 19:01 | 51.33113 | -74.91901 | 32840 ft | 485 kts | 95° |
| 2026-04-29 19:02 | 51.32922 | -74.81162 | 32832 ft | 485 kts | 95° |
| 2026-04-29 19:02 | 51.32721 | -74.70428 | 32829 ft | 486 kts | 95° |
| 2026-04-29 19:03 | 51.32512 | -74.59694 | 32826 ft | 486 kts | 95° |
| 2026-04-29 19:03 | 51.32293 | -74.48965 | 32833 ft | 485 kts | 95° |
| 2026-04-29 19:04 | 51.32062 | -74.38157 | 32832 ft | 486 kts | 95° |
| 2026-04-29 19:04 | 51.31825 | -74.27468 | 32848 ft | 486 kts | 96° |
| 2026-04-29 19:05 | 51.31574 | -74.16671 | 32847 ft | 486 kts | 96° |
| 2026-04-29 19:05 | 51.31315 | -74.05926 | 32850 ft | 487 kts | 96° |
| 2026-04-29 19:06 | 51.31044 | -73.95142 | 32839 ft | 487 kts | 96° |
| 2026-04-29 19:07 | 51.30623 | -73.79005 | 32838 ft | 487 kts | 96° |
| 2026-04-29 19:07 | 51.30330 | -73.68295 | 32841 ft | 487 kts | 96° |
| 2026-04-29 19:08 | 51.30024 | -73.57468 | 32851 ft | 487 kts | 96° |
| 2026-04-29 19:08 | 51.29711 | -73.46729 | 32842 ft | 487 kts | 96° |
| 2026-04-29 19:09 | 51.29388 | -73.35986 | 32837 ft | 487 kts | 96° |
| 2026-04-29 19:09 | 51.29054 | -73.25229 | 32846 ft | 487 kts | 97° |
| 2026-04-29 19:10 | 51.28712 | -73.14497 | 32845 ft | 486 kts | 97° |
| 2026-04-29 19:10 | 51.28359 | -73.03737 | 32843 ft | 486 kts | 97° |
| 2026-04-29 19:11 | 51.27994 | -72.92963 | 32853 ft | 486 kts | 97° |
| 2026-04-29 19:11 | 51.27623 | -72.82262 | 32837 ft | 486 kts | 97° |
| 2026-04-29 19:12 | 51.27241 | -72.71542 | 32830 ft | 485 kts | 97° |
| 2026-04-29 19:12 | 51.26849 | -72.60823 | 32829 ft | 485 kts | 97° |
| 2026-04-29 19:13 | 51.26450 | -72.50158 | 32834 ft | 485 kts | 97° |
| 2026-04-29 19:13 | 51.26037 | -72.39414 | 32836 ft | 485 kts | 97° |
| 2026-04-29 19:14 | 51.25618 | -72.28700 | 32835 ft | 485 kts | 98° |
| 2026-04-29 19:14 | 51.25189 | -72.18043 | 32825 ft | 484 kts | 98° |
| 2026-04-29 19:15 | 51.24749 | -72.07333 | 32824 ft | 483 kts | 98° |
| 2026-04-29 19:15 | 51.24300 | -71.96671 | 32823 ft | 483 kts | 98° |
| 2026-04-29 19:16 | 51.23846 | -71.86087 | 32826 ft | 482 kts | 98° |
| 2026-04-29 19:16 | 51.23378 | -71.75433 | 32823 ft | 483 kts | 98° |
| 2026-04-29 19:17 | 51.22900 | -71.64782 | 32828 ft | 483 kts | 98° |
| 2026-04-29 19:17 | 51.22415 | -71.54141 | 32825 ft | 482 kts | 98° |
| 2026-04-29 19:18 | 51.21922 | -71.43576 | 32827 ft | 482 kts | 98° |
| 2026-04-29 19:18 | 51.21417 | -71.32954 | 32830 ft | 481 kts | 98° |
| 2026-04-29 19:19 | 51.20906 | -71.22379 | 32826 ft | 480 kts | 98° |
| 2026-04-29 19:19 | 51.20382 | -71.11769 | 32823 ft | 480 kts | 98° |
| 2026-04-29 19:20 | 51.19852 | -71.01252 | 32812 ft | 479 kts | 98° |
| 2026-04-29 19:20 | 51.19313 | -70.90683 | 32811 ft | 479 kts | 98° |
| 2026-04-29 19:21 | 51.18765 | -70.80154 | 32811 ft | 479 kts | 99° |
| 2026-04-29 19:21 | 51.18209 | -70.69658 | 32813 ft | 479 kts | 99° |
| 2026-04-29 19:22 | 51.17641 | -70.59096 | 32815 ft | 479 kts | 99° |
| 2026-04-29 19:22 | 51.17065 | -70.48593 | 32816 ft | 478 kts | 99° |
| 2026-04-29 19:23 | 51.16478 | -70.38066 | 32819 ft | 478 kts | 99° |
| 2026-04-29 19:23 | 51.15888 | -70.27620 | 32818 ft | 477 kts | 100° |
| 2026-04-29 19:24 | 51.15286 | -70.17150 | 32824 ft | 477 kts | 100° |
| 2026-04-29 19:24 | 51.14674 | -70.06662 | 32824 ft | 476 kts | 100° |
| 2026-04-29 19:25 | 51.14016 | -69.96196 | 32821 ft | 475 kts | 101° |
| 2026-04-29 19:25 | 51.13174 | -69.85831 | 32821 ft | 474 kts | 102° |
| 2026-04-29 19:26 | 51.12315 | -69.75554 | 32819 ft | 472 kts | 102° |
| 2026-04-29 19:26 | 51.11453 | -69.65201 | 32822 ft | 472 kts | 102° |
| 2026-04-29 19:27 | 51.10593 | -69.54909 | 32825 ft | 473 kts | 102° |
| 2026-04-29 19:27 | 51.09722 | -69.44565 | 32824 ft | 473 kts | 102° |
| 2026-04-29 19:28 | 51.08847 | -69.34270 | 32829 ft | 472 kts | 103° |
| 2026-04-29 19:28 | 51.07961 | -69.23938 | 32840 ft | 471 kts | 103° |
| 2026-04-29 19:29 | 51.07072 | -69.13702 | 32841 ft | 471 kts | 103° |
| 2026-04-29 19:29 | 51.06170 | -69.03410 | 32845 ft | 471 kts | 103° |
| 2026-04-29 19:30 | 51.05265 | -68.93186 | 32847 ft | 471 kts | 103° |
| 2026-04-29 19:30 | 51.04344 | -68.82900 | 32857 ft | 470 kts | 103° |
| 2026-04-29 19:31 | 51.03422 | -68.72718 | 32869 ft | 470 kts | 103° |
| 2026-04-29 19:31 | 51.02487 | -68.62470 | 32881 ft | 469 kts | 103° |
| 2026-04-29 19:32 | 51.01542 | -68.52246 | 32881 ft | 470 kts | 103° |
| 2026-04-29 19:32 | 51.00593 | -68.42056 | 32878 ft | 469 kts | 103° |
| 2026-04-29 19:33 | 50.99635 | -68.31876 | 32878 ft | 468 kts | 104° |
| 2026-04-29 19:33 | 50.98671 | -68.21708 | 32885 ft | 468 kts | 104° |
| 2026-04-29 19:34 | 50.97697 | -68.11558 | 32888 ft | 467 kts | 104° |
| 2026-04-29 19:34 | 50.96714 | -68.01395 | 32892 ft | 467 kts | 104° |
| 2026-04-29 19:35 | 50.95720 | -67.91242 | 32893 ft | 467 kts | 104° |
| 2026-04-29 19:35 | 50.94725 | -67.81158 | 32900 ft | 467 kts | 104° |
| 2026-04-29 19:36 | 50.93714 | -67.71008 | 32911 ft | 467 kts | 104° |
| 2026-04-29 19:36 | 50.92699 | -67.60889 | 32915 ft | 467 kts | 104° |
| 2026-04-29 19:37 | 50.91674 | -67.50794 | 32916 ft | 466 kts | 104° |
| 2026-04-29 19:37 | 50.90643 | -67.40693 | 32912 ft | 465 kts | 104° |
| 2026-04-29 19:38 | 50.89607 | -67.30641 | 32914 ft | 465 kts | 105° |
| 2026-04-29 19:38 | 50.88556 | -67.20544 | 33199 ft | 465 kts | 105° |
| 2026-04-29 19:38 | 50.88031 | -67.15521 | 33443 ft | 464 kts | 105° |
| 2026-04-29 19:39 | 50.87508 | -67.10521 | 33674 ft | 462 kts | 105° |
| 2026-04-29 19:39 | 50.86977 | -67.05491 | 33884 ft | 461 kts | 105° |
| 2026-04-29 19:39 | 50.86449 | -67.00519 | 34077 ft | 460 kts | 105° |
| 2026-04-29 19:39 | 50.85926 | -66.95612 | 34255 ft | 459 kts | 105° |
| 2026-04-29 19:40 | 50.85395 | -66.90648 | 34431 ft | 458 kts | 105° |
| 2026-04-29 19:40 | 50.84859 | -66.85667 | 34592 ft | 458 kts | 106° |
| 2026-04-29 19:40 | 50.84329 | -66.80765 | 34721 ft | 458 kts | 105° |
| 2026-04-29 19:40 | 50.83792 | -66.75829 | 34845 ft | 458 kts | 105° |
| 2026-04-29 19:41 | 50.83253 | -66.70879 | 34943 ft | 458 kts | 105° |
| 2026-04-29 19:41 | 50.82171 | -66.61000 | 34947 ft | 459 kts | 105° |
| 2026-04-29 19:42 | 50.81079 | -66.51086 | 34951 ft | 458 kts | 105° |
| 2026-04-29 19:42 | 50.79982 | -66.41209 | 34950 ft | 458 kts | 105° |
| 2026-04-29 19:43 | 50.78874 | -66.31337 | 34961 ft | 458 kts | 107° |
| 2026-04-29 19:43 | 50.77761 | -66.21491 | 34971 ft | 457 kts | 107° |
| 2026-04-29 19:44 | 50.76638 | -66.11635 | 34974 ft | 456 kts | 107° |
| 2026-04-29 19:44 | 50.75511 | -66.01825 | 34970 ft | 457 kts | 107° |
| 2026-04-29 19:45 | 50.74371 | -65.91978 | 34977 ft | 458 kts | 106° |
| 2026-04-29 19:45 | 50.73220 | -65.82126 | 34974 ft | 458 kts | 106° |
| 2026-04-29 19:46 | 50.72069 | -65.72330 | 34974 ft | 458 kts | 106° |
| 2026-04-29 19:46 | 50.70903 | -65.62479 | 34989 ft | 459 kts | 106° |
| 2026-04-29 19:47 | 50.69731 | -65.52647 | 34995 ft | 459 kts | 106° |
| 2026-04-29 19:47 | 50.68542 | -65.42758 | 34983 ft | 459 kts | 106° |
| 2026-04-29 19:48 | 50.67351 | -65.32927 | 34992 ft | 459 kts | 107° |
| 2026-04-29 19:48 | 50.66151 | -65.23090 | 34993 ft | 458 kts | 107° |
| 2026-04-29 19:49 | 50.64948 | -65.13308 | 35001 ft | 458 kts | 107° |
| 2026-04-29 19:49 | 50.63737 | -65.03529 | 34998 ft | 459 kts | 106° |
| 2026-04-29 19:50 | 50.62509 | -64.93697 | 34989 ft | 460 kts | 106° |
| 2026-04-29 19:50 | 50.61272 | -64.83851 | 35002 ft | 460 kts | 106° |
| 2026-04-29 19:51 | 50.60030 | -64.74027 | 35002 ft | 461 kts | 106° |
| 2026-04-29 19:51 | 50.58776 | -64.64176 | 35007 ft | 461 kts | 106° |
| 2026-04-29 19:52 | 50.57504 | -64.54274 | 35000 ft | 461 kts | 106° |
| 2026-04-29 19:52 | 50.56237 | -64.44480 | 35019 ft | 462 kts | 106° |
| 2026-04-29 19:53 | 50.54951 | -64.34600 | 35026 ft | 462 kts | 107° |
| 2026-04-29 19:53 | 50.53660 | -64.24757 | 35017 ft | 462 kts | 107° |
| 2026-04-29 19:54 | 50.51702 | -64.09959 | 35038 ft | 462 kts | 106° |
| 2026-04-29 19:54 | 50.50389 | -64.00109 | 35040 ft | 463 kts | 106° |
| 2026-04-29 19:55 | 50.49068 | -63.90276 | 35050 ft | 462 kts | 106° |
| 2026-04-29 19:55 | 50.47739 | -63.80449 | 35055 ft | 463 kts | 106° |
| 2026-04-29 19:56 | 50.46404 | -63.70637 | 35065 ft | 463 kts | 106° |
| 2026-04-29 19:56 | 50.45051 | -63.60771 | 35065 ft | 463 kts | 106° |
| 2026-04-29 19:57 | 50.43695 | -63.50951 | 35074 ft | 464 kts | 106° |
| 2026-04-29 19:57 | 50.42097 | -63.39457 | 35085 ft | 463 kts | 106° |
| 2026-04-29 19:58 | 50.40955 | -63.31290 | 35082 ft | 463 kts | 107° |
| 2026-04-29 19:58 | 50.39574 | -63.21475 | 35083 ft | 462 kts | 107° |
| 2026-04-29 19:59 | 50.38183 | -63.11657 | 35093 ft | 463 kts | 107° |
| 2026-04-29 19:59 | 50.36552 | -63.00230 | 35094 ft | 463 kts | 107° |
| 2026-04-29 20:00 | 50.35376 | -62.92036 | 35097 ft | 463 kts | 107° |
| 2026-04-29 20:00 | 50.33971 | -62.82309 | 35103 ft | 463 kts | 107° |
| 2026-04-29 20:01 | 50.32299 | -62.70827 | 35110 ft | 463 kts | 106° |
| 2026-04-29 20:01 | 50.31113 | -62.62721 | 35111 ft | 463 kts | 106° |
| 2026-04-29 20:02 | 50.29670 | -62.52926 | 35117 ft | 462 kts | 106° |
| 2026-04-29 20:02 | 50.28474 | -62.44846 | 35122 ft | 462 kts | 106° |
| 2026-04-29 20:03 | 50.26786 | -62.33512 | 35131 ft | 461 kts | 107° |
| 2026-04-29 20:03 | 50.25078 | -62.22128 | 35136 ft | 461 kts | 107° |
| 2026-04-29 20:04 | 50.23858 | -62.14053 | 35139 ft | 462 kts | 107° |
| 2026-04-29 20:04 | 50.22382 | -62.04330 | 35147 ft | 462 kts | 107° |
| 2026-04-29 20:05 | 50.20901 | -61.94626 | 35159 ft | 461 kts | 106° |
| 2026-04-29 20:05 | 50.19163 | -61.83308 | 35166 ft | 460 kts | 107° |
| 2026-04-29 20:06 | 50.17930 | -61.75269 | 35182 ft | 460 kts | 106° |
| 2026-04-29 20:06 | 50.16509 | -61.65561 | 35185 ft | 461 kts | 105° |
| 2026-04-29 20:07 | 50.15087 | -61.55849 | 35184 ft | 461 kts | 105° |
| 2026-04-29 20:07 | 50.13664 | -61.46202 | 35186 ft | 461 kts | 105° |
| 2026-04-29 20:08 | 50.12459 | -61.38084 | 35184 ft | 461 kts | 105° |
| 2026-04-29 20:08 | 50.10769 | -61.26799 | 35190 ft | 459 kts | 106° |
| 2026-04-29 20:09 | 50.09323 | -61.17184 | 35191 ft | 458 kts | 106° |
| 2026-04-29 20:09 | 50.07627 | -61.06001 | 35194 ft | 458 kts | 106° |
| 2026-04-29 20:10 | 50.06405 | -60.97995 | 35193 ft | 459 kts | 106° |
| 2026-04-29 20:10 | 50.04928 | -60.88361 | 35234 ft | 458 kts | 106° |
| 2026-04-29 20:11 | 50.03451 | -60.78781 | 35239 ft | 457 kts | 106° |
| 2026-04-29 20:11 | 50.01713 | -60.67600 | 35246 ft | 457 kts | 107° |
| 2026-04-29 20:12 | 50.00229 | -60.58090 | 35229 ft | 456 kts | 107° |
| 2026-04-29 20:12 | 49.98975 | -60.50123 | 35263 ft | 456 kts | 107° |
| 2026-04-29 20:13 | 49.97472 | -60.40602 | 35233 ft | 455 kts | 107° |
| 2026-04-29 20:13 | 49.95719 | -60.29577 | 35235 ft | 453 kts | 108° |
| 2026-04-29 20:14 | 49.94455 | -60.21681 | 35233 ft | 452 kts | 108° |
| 2026-04-29 20:14 | 49.92942 | -60.12270 | 35228 ft | 451 kts | 108° |
| 2026-04-29 20:15 | 49.91434 | -60.02933 | 35234 ft | 449 kts | 108° |
| 2026-04-29 20:15 | 49.89655 | -59.91996 | 35241 ft | 449 kts | 108° |
| 2026-04-29 20:16 | 49.88376 | -59.84172 | 35231 ft | 449 kts | 108° |
| 2026-04-29 20:16 | 49.86588 | -59.73295 | 35241 ft | 448 kts | 108° |
| 2026-04-29 20:17 | 49.85303 | -59.65525 | 35251 ft | 448 kts | 108° |
| 2026-04-29 20:17 | 49.83506 | -59.54720 | 35256 ft | 446 kts | 108° |
| 2026-04-29 20:18 | 49.81955 | -59.45443 | 35252 ft | 446 kts | 108° |
| 2026-04-29 20:18 | 49.80669 | -59.37792 | 35261 ft | 445 kts | 108° |
| 2026-04-29 20:19 | 49.79113 | -59.28574 | 35250 ft | 443 kts | 109° |
| 2026-04-29 20:19 | 49.77285 | -59.17827 | 35260 ft | 443 kts | 109° |
| 2026-04-29 20:20 | 49.75980 | -59.10179 | 35256 ft | 442 kts | 109° |
| 2026-04-29 20:20 | 49.74161 | -58.99575 | 35256 ft | 440 kts | 109° |
| 2026-04-29 20:21 | 49.72851 | -58.91988 | 35248 ft | 440 kts | 109° |
| 2026-04-29 20:21 | 49.71269 | -58.82871 | 35247 ft | 439 kts | 109° |
| 2026-04-29 20:22 | 49.69427 | -58.72300 | 35245 ft | 439 kts | 109° |
| 2026-04-29 20:22 | 49.67913 | -58.63243 | 35242 ft | 442 kts | 105° |
| 2026-04-29 20:23 | 49.66937 | -58.53863 | 35245 ft | 443 kts | 103° |
| 2026-04-29 20:23 | 49.66029 | -58.44568 | 35245 ft | 442 kts | 103° |
| 2026-04-29 20:24 | 49.65232 | -58.36749 | 35229 ft | 442 kts | 103° |
| 2026-04-29 20:24 | 49.64752 | -58.32144 | 34993 ft | 441 kts | 104° |
| 2026-04-29 20:24 | 49.64265 | -58.27495 | 34762 ft | 438 kts | 104° |
| 2026-04-29 20:25 | 49.63776 | -58.22863 | 34514 ft | 435 kts | 104° |
| 2026-04-29 20:25 | 49.63130 | -58.16802 | 34163 ft | 430 kts | 104° |
| 2026-04-29 20:25 | 49.62643 | -58.12284 | 33891 ft | 430 kts | 104° |
| 2026-04-29 20:25 | 49.62315 | -58.09255 | 33712 ft | 431 kts | 104° |
| 2026-04-29 20:26 | 49.61826 | -58.04750 | 33447 ft | 432 kts | 104° |
| 2026-04-29 20:26 | 49.61161 | -57.98622 | 33081 ft | 434 kts | 104° |
| 2026-04-29 20:26 | 49.60659 | -57.94038 | 32818 ft | 436 kts | 104° |
| 2026-04-29 20:26 | 49.60327 | -57.90998 | 32639 ft | 437 kts | 104° |
| 2026-04-29 20:27 | 49.59819 | -57.86363 | 32369 ft | 438 kts | 103° |
| 2026-04-29 20:27 | 49.59485 | -57.83321 | 32194 ft | 439 kts | 103° |
| 2026-04-29 20:27 | 49.58800 | -57.77122 | 31839 ft | 441 kts | 103° |
| 2026-04-29 20:27 | 49.58115 | -57.70952 | 31485 ft | 442 kts | 103° |
| 2026-04-29 20:28 | 49.57597 | -57.66307 | 31221 ft | 443 kts | 103° |
| 2026-04-29 20:28 | 49.57248 | -57.63174 | 31042 ft | 444 kts | 103° |
| 2026-04-29 20:28 | 49.56721 | -57.58475 | 30777 ft | 445 kts | 103° |
| 2026-04-29 20:28 | 49.56027 | -57.52309 | 30404 ft | 440 kts | 103° |
| 2026-04-29 20:29 | 49.55506 | -57.47685 | 30039 ft | 432 kts | 103° |
| 2026-04-29 20:29 | 49.55171 | -57.44712 | 29801 ft | 427 kts | 103° |
| 2026-04-29 20:29 | 49.54500 | -57.38804 | 29324 ft | 417 kts | 103° |
| 2026-04-29 20:29 | 49.53999 | -57.34420 | 28965 ft | 410 kts | 104° |
| 2026-04-29 20:30 | 49.53509 | -57.30163 | 28615 ft | 403 kts | 104° |
| 2026-04-29 20:30 | 49.53187 | -57.27360 | 28382 ft | 398 kts | 104° |
| 2026-04-29 20:30 | 49.52549 | -57.21834 | 27920 ft | 390 kts | 104° |
| 2026-04-29 20:30 | 49.52079 | -57.17782 | 27569 ft | 382 kts | 104° |
| 2026-04-29 20:31 | 49.51621 | -57.13834 | 27249 ft | 382 kts | 104° |
| 2026-04-29 20:31 | 49.51138 | -57.09741 | 27003 ft | 393 kts | 104° |
| 2026-04-29 20:31 | 49.50822 | -57.07047 | 26800 ft | 388 kts | 104° |
| 2026-04-29 20:31 | 49.50195 | -57.01690 | 26343 ft | 379 kts | 104° |
| 2026-04-29 20:32 | 49.49871 | -56.99031 | 26111 ft | 374 kts | 106° |
| 2026-04-29 20:32 | 49.48397 | -56.94470 | 25624 ft | 355 kts | 137° |
| 2026-04-29 20:32 | 49.46440 | -56.92271 | 25283 ft | 344 kts | 157° |
| 2026-04-29 20:32 | 49.44959 | -56.91480 | 25119 ft | 342 kts | 169° |
| 2026-04-29 20:33 | 49.41835 | -56.91501 | 24777 ft | 341 kts | 194° |
| 2026-04-29 20:33 | 49.39653 | -56.92938 | 24521 ft | 342 kts | 213° |
| 2026-04-29 20:33 | 49.37928 | -56.95407 | 24263 ft | 345 kts | 232° |
| 2026-04-29 20:33 | 49.37116 | -56.97533 | 24092 ft | 348 kts | 245° |
| 2026-04-29 20:34 | 49.36555 | -57.02397 | 23749 ft | 354 kts | 272° |
| 2026-04-29 20:34 | 49.36903 | -57.06089 | 23513 ft | 354 kts | 277° |
| 2026-04-29 20:34 | 49.37181 | -57.08580 | 23342 ft | 354 kts | 277° |
| 2026-04-29 20:34 | 49.37726 | -57.13514 | 23006 ft | 352 kts | 276° |
| 2026-04-29 20:35 | 49.38117 | -57.17168 | 22753 ft | 351 kts | 276° |
| 2026-04-29 20:35 | 49.38640 | -57.20836 | 22480 ft | 353 kts | 289° |
| 2026-04-29 20:35 | 49.39916 | -57.24018 | 22214 ft | 358 kts | 311° |
| 2026-04-29 20:35 | 49.41893 | -57.26324 | 21980 ft | 362 kts | 333° |
| 2026-04-29 20:36 | 49.43461 | -57.27191 | 21814 ft | 362 kts | 348° |
| 2026-04-29 20:36 | 49.46783 | -57.27081 | 21488 ft | 360 kts | 17° |
| 2026-04-29 20:36 | 49.48996 | -57.25452 | 21251 ft | 356 kts | 39° |
| 2026-04-29 20:36 | 49.50214 | -57.23708 | 21085 ft | 352 kts | 53° |
| 2026-04-29 20:37 | 49.51634 | -57.19328 | 20745 ft | 343 kts | 81° |
| 2026-04-29 20:37 | 49.51809 | -57.16923 | 20574 ft | 338 kts | 94° |
| 2026-04-29 20:37 | 49.51383 | -57.12218 | 20265 ft | 333 kts | 103° |
| 2026-04-29 20:37 | 49.50968 | -57.08757 | 20217 ft | 332 kts | 103° |
| 2026-04-29 20:38 | 49.50561 | -57.05238 | 20212 ft | 333 kts | 102° |
| 2026-04-29 20:38 | 49.50298 | -57.02879 | 20201 ft | 334 kts | 102° |
| 2026-04-29 20:38 | 49.49750 | -56.98253 | 20201 ft | 332 kts | 108° |
| 2026-04-29 20:38 | 49.48709 | -56.95134 | 20205 ft | 326 kts | 131° |
| 2026-04-29 20:39 | 49.47025 | -56.92837 | 20214 ft | 323 kts | 150° |
| 2026-04-29 20:39 | 49.45679 | -56.91843 | 20211 ft | 322 kts | 162° |
| 2026-04-29 20:39 | 49.43517 | -56.91243 | 20209 ft | 322 kts | 180° |
| 2026-04-29 20:39 | 49.40612 | -56.92159 | 20210 ft | 324 kts | 204° |
| 2026-04-29 20:40 | 49.39297 | -56.93334 | 20207 ft | 326 kts | 216° |
| 2026-04-29 20:40 | 49.37341 | -56.96812 | 20209 ft | 331 kts | 240° |
| 2026-04-29 20:40 | 49.36614 | -57.00157 | 20216 ft | 336 kts | 259° |
| 2026-04-29 20:40 | 49.36641 | -57.03723 | 20228 ft | 340 kts | 276° |
| 2026-04-29 20:41 | 49.37024 | -57.07288 | 20218 ft | 340 kts | 277° |
| 2026-04-29 20:41 | 49.37433 | -57.10899 | 20223 ft | 340 kts | 277° |
| 2026-04-29 20:41 | 49.37819 | -57.14416 | 20219 ft | 340 kts | 277° |
| 2026-04-29 20:41 | 49.38206 | -57.18024 | 20219 ft | 340 kts | 277° |
| 2026-04-29 20:42 | 49.38821 | -57.21510 | 20199 ft | 344 kts | 294° |
| 2026-04-29 20:42 | 49.40207 | -57.24484 | 20205 ft | 349 kts | 315° |
| 2026-04-29 20:42 | 49.41492 | -57.25991 | 20220 ft | 352 kts | 329° |
| 2026-04-29 20:42 | 49.43794 | -57.27296 | 20228 ft | 354 kts | 351° |
| 2026-04-29 20:43 | 49.47009 | -57.26979 | 20223 ft | 352 kts | 20° |
| 2026-04-29 20:43 | 49.49157 | -57.25261 | 20231 ft | 349 kts | 41° |
| 2026-04-29 20:43 | 49.50759 | -57.22546 | 20220 ft | 344 kts | 62° |
| 2026-04-29 20:43 | 49.51653 | -57.19163 | 20208 ft | 339 kts | 82° |
| 2026-04-29 20:44 | 49.51749 | -57.15605 | 20199 ft | 334 kts | 100° |
| 2026-04-29 20:44 | 49.51507 | -57.13285 | 20215 ft | 333 kts | 103° |
| 2026-04-29 20:44 | 49.50946 | -57.08592 | 20216 ft | 333 kts | 103° |
| 2026-04-29 20:44 | 49.50676 | -57.06258 | 20217 ft | 334 kts | 103° |
| 2026-04-29 20:45 | 49.50154 | -57.01571 | 20202 ft | 334 kts | 102° |
| 2026-04-29 20:45 | 49.49728 | -56.98127 | 20200 ft | 332 kts | 109° |
| 2026-04-29 20:45 | 49.49096 | -56.95968 | 20194 ft | 328 kts | 126° |
| 2026-04-29 20:45 | 49.46950 | -56.92767 | 20215 ft | 324 kts | 151° |
| 2026-04-29 20:46 | 49.44881 | -56.91491 | 20210 ft | 322 kts | 169° |
| 2026-04-29 20:46 | 49.42671 | -56.91298 | 20208 ft | 322 kts | 187° |
| 2026-04-29 20:46 | 49.40534 | -56.92210 | 20207 ft | 323 kts | 204° |
| 2026-04-29 20:46 | 49.38667 | -56.94145 | 20202 ft | 327 kts | 223° |
| 2026-04-29 20:47 | 49.37309 | -56.96907 | 20207 ft | 331 kts | 241° |
| 2026-04-29 20:47 | 49.36602 | -57.00292 | 20213 ft | 335 kts | 260° |
| 2026-04-29 20:47 | 49.36656 | -57.03848 | 20228 ft | 340 kts | 276° |
| 2026-04-29 20:47 | 49.36910 | -57.06256 | 20217 ft | 340 kts | 277° |
| 2026-04-29 20:48 | 49.37442 | -57.10988 | 20215 ft | 340 kts | 277° |
| 2026-04-29 20:48 | 49.37832 | -57.14531 | 20209 ft | 340 kts | 277° |
| 2026-04-29 20:48 | 49.38089 | -57.16926 | 20208 ft | 340 kts | 276° |
| 2026-04-29 20:48 | 49.38850 | -57.21598 | 20191 ft | 344 kts | 294° |
| 2026-04-29 20:49 | 49.39711 | -57.23661 | 20192 ft | 348 kts | 309° |
| 2026-04-29 20:49 | 49.42286 | -57.26607 | 20218 ft | 353 kts | 337° |
| 2026-04-29 20:49 | 49.44687 | -57.27451 | 20143 ft | 355 kts | 359° |
| 2026-04-29 20:49 | 49.47092 | -57.26947 | 19978 ft | 352 kts | 20° |
| 2026-04-29 20:50 | 49.49229 | -57.25181 | 19825 ft | 347 kts | 42° |
| 2026-04-29 20:50 | 49.50792 | -57.22472 | 19657 ft | 342 kts | 62° |
| 2026-04-29 20:50 | 49.51662 | -57.19095 | 19509 ft | 335 kts | 82° |
| 2026-04-29 20:50 | 49.51746 | -57.15585 | 19367 ft | 329 kts | 100° |
| 2026-04-29 20:51 | 49.51505 | -57.13299 | 19332 ft | 328 kts | 103° |
| 2026-04-29 20:51 | 49.50955 | -57.08680 | 19289 ft | 328 kts | 103° |
| 2026-04-29 20:51 | 49.50558 | -57.05232 | 19246 ft | 328 kts | 102° |
| 2026-04-29 20:51 | 49.50177 | -57.01785 | 19196 ft | 328 kts | 102° |
| 2026-04-29 20:52 | 49.49793 | -56.98340 | 19167 ft | 328 kts | 103° |
| 2026-04-29 20:52 | 49.49505 | -56.96088 | 19150 ft | 327 kts | 104° |
| 2026-04-29 20:52 | 49.48800 | -56.91567 | 19146 ft | 326 kts | 108° |
| 2026-04-29 20:52 | 49.48167 | -56.88243 | 19130 ft | 326 kts | 110° |
| 2026-04-29 20:53 | 49.47694 | -56.86046 | 19132 ft | 326 kts | 111° |
| 2026-04-29 20:53 | 49.46626 | -56.81708 | 19149 ft | 325 kts | 115° |
| 2026-04-29 20:53 | 49.45723 | -56.78518 | 19163 ft | 325 kts | 117° |
| 2026-04-29 20:53 | 49.44792 | -56.75357 | 19182 ft | 325 kts | 115° |
| 2026-04-29 20:54 | 49.43418 | -56.70007 | 19214 ft | 326 kts | 112° |
| 2026-04-29 20:54 | 49.42441 | -56.65610 | 19246 ft | 326 kts | 111° |
| 2026-04-29 20:54 | 49.41722 | -56.62370 | 19264 ft | 326 kts | 111° |
| 2026-04-29 20:55 | 49.40987 | -56.59072 | 19298 ft | 327 kts | 110° |
| 2026-04-29 20:55 | 49.40258 | -56.55792 | 19340 ft | 327 kts | 111° |
| 2026-04-29 20:55 | 49.39524 | -56.52486 | 19384 ft | 327 kts | 111° |
| 2026-04-29 20:55 | 49.38784 | -56.49165 | 19435 ft | 327 kts | 111° |
| 2026-04-29 20:56 | 49.38045 | -56.45866 | 19487 ft | 328 kts | 111° |
| 2026-04-29 20:56 | 49.37313 | -56.42591 | 19513 ft | 327 kts | 111° |
| 2026-04-29 20:56 | 49.36578 | -56.39308 | 19312 ft | 324 kts | 111° |
| 2026-04-29 20:56 | 49.36094 | -56.37147 | 19145 ft | 319 kts | 111° |
| 2026-04-29 20:57 | 49.35150 | -56.32938 | 18760 ft | 311 kts | 111° |
| 2026-04-29 20:57 | 49.34449 | -56.29827 | 18374 ft | 310 kts | 111° |
| 2026-04-29 20:57 | 49.33975 | -56.27726 | 18116 ft | 308 kts | 111° |
| 2026-04-29 20:57 | 49.33055 | -56.23653 | 17611 ft | 306 kts | 111° |
| 2026-04-29 20:58 | 49.32360 | -56.20576 | 17220 ft | 304 kts | 111° |
| 2026-04-29 20:58 | 49.31669 | -56.17526 | 16850 ft | 302 kts | 111° |
| 2026-04-29 20:58 | 49.30983 | -56.14500 | 16486 ft | 300 kts | 111° |
| 2026-04-29 20:58 | 49.30311 | -56.11539 | 16111 ft | 299 kts | 111° |
| 2026-04-29 20:59 | 49.29628 | -56.08534 | 15736 ft | 297 kts | 111° |
| 2026-04-29 20:59 | 49.28950 | -56.05556 | 15367 ft | 295 kts | 111° |
| 2026-04-29 20:59 | 49.28275 | -56.02602 | 14965 ft | 294 kts | 110° |
| 2026-04-29 20:59 | 49.27612 | -55.99699 | 14597 ft | 293 kts | 110° |
| 2026-04-29 21:00 | 49.26937 | -55.96746 | 14215 ft | 291 kts | 110° |
| 2026-04-29 21:00 | 49.26283 | -55.93890 | 13950 ft | 285 kts | 110° |
| 2026-04-29 21:00 | 49.25641 | -55.91083 | 13778 ft | 276 kts | 110° |
| 2026-04-29 21:00 | 49.25021 | -55.88374 | 13543 ft | 265 kts | 110° |
| 2026-04-29 21:01 | 49.24419 | -55.85750 | 13146 ft | 259 kts | 110° |
| 2026-04-29 21:01 | 49.23826 | -55.83169 | 12667 ft | 257 kts | 110° |
| 2026-04-29 21:01 | 49.23237 | -55.80609 | 12192 ft | 255 kts | 110° |
| 2026-04-29 21:01 | 49.22657 | -55.78092 | 11720 ft | 253 kts | 110° |
| 2026-04-29 21:02 | 49.22077 | -55.75578 | 11251 ft | 251 kts | 110° |
| 2026-04-29 21:02 | 49.21500 | -55.73089 | 10758 ft | 250 kts | 110° |
| 2026-04-29 21:02 | 49.20921 | -55.70587 | 10403 ft | 247 kts | 110° |
| 2026-04-29 21:02 | 49.20349 | -55.68124 | 10102 ft | 244 kts | 110° |
| 2026-04-29 21:03 | 49.19791 | -55.65716 | 9795 ft | 243 kts | 110° |
| 2026-04-29 21:03 | 49.19226 | -55.63282 | 9437 ft | 242 kts | 110° |
| 2026-04-29 21:03 | 49.18673 | -55.60895 | 9108 ft | 240 kts | 110° |
| 2026-04-29 21:03 | 49.18114 | -55.58493 | 8793 ft | 239 kts | 110° |
| 2026-04-29 21:04 | 49.17558 | -55.56102 | 8448 ft | 238 kts | 110° |
| 2026-04-29 21:04 | 49.17010 | -55.53755 | 8124 ft | 237 kts | 111° |
| 2026-04-29 21:04 | 49.16458 | -55.51392 | 7767 ft | 236 kts | 110° |
| 2026-04-29 21:04 | 49.16087 | -55.49805 | 7543 ft | 235 kts | 111° |
| 2026-04-29 21:05 | 49.15363 | -55.46714 | 7108 ft | 233 kts | 111° |
| 2026-04-29 21:05 | 49.14821 | -55.44396 | 6798 ft | 232 kts | 111° |
| 2026-04-29 21:05 | 49.14272 | -55.42056 | 6467 ft | 231 kts | 111° |
| 2026-04-29 21:05 | 49.13732 | -55.39762 | 6132 ft | 230 kts | 111° |
| 2026-04-29 21:06 | 49.13193 | -55.37466 | 5687 ft | 235 kts | 111° |
| 2026-04-29 21:06 | 49.12635 | -55.35098 | 5256 ft | 239 kts | 111° |
| 2026-04-29 21:06 | 49.12075 | -55.32724 | 4927 ft | 238 kts | 111° |
| 2026-04-29 21:06 | 49.11521 | -55.30379 | 4589 ft | 236 kts | 111° |
| 2026-04-29 21:07 | 49.10965 | -55.28023 | 4267 ft | 236 kts | 111° |
| 2026-04-29 21:07 | 49.10417 | -55.25697 | 3941 ft | 235 kts | 111° |
| 2026-04-29 21:07 | 49.10050 | -55.24143 | 3711 ft | 234 kts | 111° |
| 2026-04-29 21:07 | 49.09320 | -55.21055 | 3285 ft | 233 kts | 112° |
| 2026-04-29 21:08 | 49.08768 | -55.18720 | 2956 ft | 232 kts | 112° |
| 2026-04-29 21:08 | 49.08221 | -55.16422 | 2645 ft | 230 kts | 112° |
| 2026-04-29 21:08 | 49.07670 | -55.14156 | 2575 ft | 230 kts | 114° |
| 2026-04-29 21:08 | 49.07058 | -55.11886 | 2571 ft | 230 kts | 114° |
| 2026-04-29 21:09 | 49.06465 | -55.09623 | 2567 ft | 229 kts | 113° |
| 2026-04-29 21:09 | 49.05906 | -55.07382 | 2556 ft | 223 kts | 112° |
| 2026-04-29 21:09 | 49.05398 | -55.05246 | 2543 ft | 208 kts | 111° |
| 2026-04-29 21:09 | 49.04937 | -55.03238 | 2608 ft | 199 kts | 111° |
| 2026-04-29 21:10 | 49.04488 | -55.01248 | 2632 ft | 199 kts | 110° |
| 2026-04-29 21:10 | 49.04046 | -54.99246 | 2592 ft | 198 kts | 110° |
| 2026-04-29 21:10 | 49.03608 | -54.97240 | 2582 ft | 198 kts | 110° |
| 2026-04-29 21:10 | 49.03177 | -54.95248 | 2574 ft | 199 kts | 110° |
| 2026-04-29 21:11 | 49.02751 | -54.93269 | 2576 ft | 198 kts | 110° |
| 2026-04-29 21:11 | 49.02320 | -54.91258 | 2576 ft | 197 kts | 110° |
| 2026-04-29 21:11 | 49.01915 | -54.89359 | 2591 ft | 183 kts | 110° |
| 2026-04-29 21:11 | 49.01519 | -54.87511 | 2591 ft | 183 kts | 110° |
| 2026-04-29 21:12 | 49.01127 | -54.85682 | 2589 ft | 183 kts | 110° |
| 2026-04-29 21:12 | 49.00865 | -54.84460 | 2584 ft | 181 kts | 110° |
| 2026-04-29 21:12 | 49.00367 | -54.82132 | 2541 ft | 159 kts | 110° |
| 2026-04-29 21:12 | 49.00039 | -54.80600 | 2549 ft | 148 kts | 110° |
| 2026-04-29 21:13 | 48.99729 | -54.79151 | 2550 ft | 140 kts | 111° |
| 2026-04-29 21:13 | 48.99429 | -54.77757 | 2573 ft | 140 kts | 111° |
| 2026-04-29 21:13 | 48.99126 | -54.76350 | 2588 ft | 140 kts | 110° |
| 2026-04-29 21:13 | 48.98821 | -54.74928 | 2587 ft | 140 kts | 110° |
| 2026-04-29 21:14 | 48.98519 | -54.73526 | 2470 ft | 140 kts | 110° |
| 2026-04-29 21:14 | 48.98219 | -54.72124 | 2281 ft | 139 kts | 110° |
| 2026-04-29 21:14 | 48.97921 | -54.70731 | 2104 ft | 138 kts | 110° |
| 2026-04-29 21:14 | 48.97624 | -54.69343 | 1922 ft | 137 kts | 110° |
| 2026-04-29 21:15 | 48.97332 | -54.67977 | 1741 ft | 136 kts | 110° |
| 2026-04-29 21:15 | 48.97041 | -54.66619 | 1563 ft | 134 kts | 110° |
| 2026-04-29 21:15 | 48.96755 | -54.65279 | 1387 ft | 133 kts | 110° |
| 2026-04-29 21:15 | 48.96469 | -54.63949 | 1210 ft | 132 kts | 109° |
| 2026-04-29 21:16 | 48.96184 | -54.62613 | 1032 ft | 131 kts | 109° |
| 2026-04-29 21:16 | 48.95906 | -54.61312 | 861 ft | 130 kts | 109° |
| 2026-04-29 21:16 | 48.95624 | -54.59993 | 686 ft | 130 kts | 108° |
| 2026-04-29 21:16 | 48.95346 | -54.58693 | 515 ft | 128 kts | 108° |
| 2026-04-29 21:17 | 48.95078 | -54.57479 | 466 ft | 98 kts | 105° |
| 2026-04-29 21:17 | 48.94951 | -54.56940 | 459 ft | 30 kts | 144° |
| 2026-04-29 21:17 | 48.94781 | -54.56973 | 461 ft | 23 kts | 202° |
| 2026-04-29 21:17 | 48.94737 | -54.57154 | 464 ft | 18 kts | 284° |
| 2026-04-29 21:18 | 48.94751 | -54.57325 | 467 ft | 10 kts | 229° |
| 2026-04-29 21:18 | 48.94719 | -54.57318 | 467 ft | 7 kts | 145° |
| 2026-04-29 21:18 | 48.94709 | -54.57309 | 467 ft | 0 kts | 149° |